Lyerly, Georgia
Current Conditions -  °F | °C
As of 7:53 AM on Sunday 23 Nov 2014 (Local Time) from KRMG Reporting Station
Light Rain Light Rain  
Wind Chill: 10°   Ceiling: 900
Heat Index: 10°   Visibility: 10mi
Dew Point:   Wind: 6mph
Humidity: 89%   Direction: 110°ESE
Pressure: 30"   Gusts: NA
Location:  34.4°N, 85.4°W
Report Text: KRMG 231253Z AUTO 11005KT 10SM -RA OVC009 10/08 A3000 RMK AO2 RAB45 SLP155 P0000 T01000083
Loading
Personal Weather Stations






























Interactive Weather Map New forecast layout! Learn more

10-Day Weather Forecast

Advertisements
Track Severe Weather on mobile